createdAt,value
2023-01-17T00:02:28.239Z,22.20
2023-01-17T00:05:15.636Z,22.67
2023-01-17T00:08:02.088Z,21.93
2023-01-17T00:10:32.808Z,22.27
2023-01-17T00:13:06.646Z,19.87
2023-01-17T00:15:34.568Z,20.07
2023-01-17T00:18:01.928Z,14.40
2023-01-17T00:20:53.347Z,19.47
2023-01-17T00:23:41.972Z,19.23
2023-01-17T00:26:34.629Z,15.30
2023-01-17T00:29:01.726Z,16.10
2023-01-17T00:31:30.434Z,18.50
2023-01-17T00:34:00.488Z,17.87
2023-01-17T00:36:31.644Z,19.43
2023-01-17T00:39:00.884Z,19.73
2023-01-17T00:41:29.483Z,17.80
2023-01-17T00:44:15.357Z,17.73
2023-01-17T00:47:04.779Z,17.20
2023-01-17T00:49:55.100Z,16.30
2023-01-17T00:52:43.037Z,17.40
2023-01-17T00:55:31.147Z,16.93
2023-01-17T00:58:18.828Z,18.40
2023-01-17T01:01:07.089Z,17.77
2023-01-17T01:03:56.885Z,17.70
2023-01-17T01:07:21.249Z,18.67
2023-01-17T01:10:07.819Z,18.53
2023-01-17T01:12:56.100Z,17.33
2023-01-17T01:15:44.182Z,18.97
2023-01-17T01:18:33.490Z,17.63
2023-01-17T01:21:27.180Z,17.13
2023-01-17T01:24:16.665Z,13.43
2023-01-17T01:27:04.070Z,15.67
2023-01-17T01:29:51.035Z,16.00
2023-01-17T01:32:37.972Z,16.20
2023-01-17T01:35:13.965Z,13.53
2023-01-17T01:37:49.905Z,10.90
2023-01-17T01:40:18.812Z,13.73
2023-01-17T01:42:58.536Z,15.87
2023-01-17T01:45:30.475Z,14.83
2023-01-17T01:48:07.315Z,14.70
2023-01-17T01:50:38.286Z,14.70
2023-01-17T01:53:09.803Z,14.77
2023-01-17T01:55:55.920Z,13.87
2023-01-17T01:58:28.112Z,13.70
2023-01-17T02:00:56.935Z,13.93
2023-01-17T02:03:28.508Z,14.17
2023-01-17T02:06:05.645Z,16.73
2023-01-17T02:08:35.406Z,18.33
2023-01-17T02:11:03.636Z,16.20
2023-01-17T02:13:32.340Z,17.17
2023-01-17T02:16:49.340Z,17.30
2023-01-17T02:19:50.775Z,15.83
2023-01-17T02:22:55.584Z,17.43
2023-01-17T02:25:52.184Z,18.47
2023-01-17T02:28:42.295Z,17.03
2023-01-17T02:31:18.813Z,18.03
2023-01-17T02:34:03.100Z,17.13
2023-01-17T02:36:58.494Z,16.53
2023-01-17T02:40:02.926Z,14.73
2023-01-17T02:42:50.123Z,15.47
2023-01-17T02:45:20.291Z,15.67
2023-01-17T02:47:55.475Z,15.20
2023-01-17T02:50:38.015Z,14.90
2023-01-17T02:53:46.535Z,15.57
2023-01-17T02:56:39.893Z,13.23
2023-01-17T02:59:26.591Z,14.57
2023-01-17T03:02:40.068Z,14.73
2023-01-17T03:05:48.124Z,16.33
2023-01-17T03:08:25.763Z,14.40
2023-01-17T03:10:58.923Z,14.10
2023-01-17T03:13:33.796Z,15.03
2023-01-17T03:16:01.486Z,15.20
2023-01-17T03:18:37.825Z,16.27
2023-01-17T03:21:08.800Z,15.33
2023-01-17T03:23:38.394Z,14.57
2023-01-17T03:26:06.123Z,15.73
2023-01-17T03:28:35.375Z,14.23
2023-01-17T03:31:05.031Z,12.50
2023-01-17T03:33:35.562Z,16.43
2023-01-17T03:36:05.830Z,13.63
2023-01-17T03:38:41.900Z,15.77
2023-01-17T03:41:19.019Z,15.67
2023-01-17T03:43:48.604Z,14.93
2023-01-17T03:46:30.961Z,15.73
2023-01-17T03:49:01.348Z,17.00
2023-01-17T03:51:32.149Z,12.00
2023-01-17T03:54:00.787Z,16.57
2023-01-17T03:56:29.247Z,16.70
2023-01-17T03:59:06.273Z,15.33
2023-01-17T04:01:34.911Z,15.57
2023-01-17T04:04:05.809Z,15.47
2023-01-17T04:06:34.868Z,16.27
2023-01-17T04:09:03.416Z,13.43
2023-01-17T04:11:33.831Z,12.40
2023-01-17T04:14:03.671Z,11.77
2023-01-17T04:16:32.936Z,10.77
2023-01-17T04:19:11.635Z,10.07
2023-01-17T04:21:42.886Z,11.07
2023-01-17T04:24:12.646Z,10.60
2023-01-17T04:26:40.865Z,10.00
2023-01-17T04:29:13.376Z,11.27
2023-01-17T04:31:44.602Z,10.07
2023-01-17T04:34:14.703Z,8.63
2023-01-17T04:36:44.246Z,8.97
2023-01-17T04:39:14.163Z,15.67
2023-01-17T04:41:45.162Z,9.90
2023-01-17T04:44:13.865Z,12.10
2023-01-17T04:46:43.629Z,18.87
2023-01-17T04:49:13.007Z,15.37
2023-01-17T04:51:43.223Z,17.00
2023-01-17T04:54:13.880Z,15.93
2023-01-17T04:56:42.670Z,15.73
2023-01-17T04:59:09.979Z,12.30
2023-01-17T05:01:47.021Z,13.73
2023-01-17T05:07:02.421Z,11.57
2023-01-17T05:09:34.900Z,11.00
2023-01-17T05:12:04.506Z,11.10
2023-01-17T05:14:35.319Z,9.73
2023-01-17T05:17:03.892Z,10.90
2023-01-17T05:19:32.342Z,11.70
2023-01-17T05:22:04.423Z,14.90
2023-01-17T05:24:44.427Z,14.93
2023-01-17T05:27:15.907Z,14.43
2023-01-17T05:29:44.337Z,17.60
2023-01-17T05:32:12.665Z,17.43
2023-01-17T05:34:39.675Z,16.57
2023-01-17T05:37:08.969Z,17.17
2023-01-17T05:39:36.971Z,17.17
2023-01-17T05:42:09.614Z,18.97
2023-01-17T05:44:40.940Z,21.40
2023-01-17T05:47:09.725Z,20.30
2023-01-17T05:49:36.985Z,20.00
2023-01-17T05:52:05.742Z,19.03
2023-01-17T05:54:42.210Z,18.70
2023-01-17T05:57:14.133Z,21.73
2023-01-17T05:59:41.895Z,26.43
2023-01-17T06:02:09.065Z,21.37
2023-01-17T06:04:37.994Z,20.33
2023-01-17T06:07:06.230Z,19.00
2023-01-17T06:09:33.199Z,24.70
2023-01-17T06:12:01.528Z,21.20
2023-01-17T06:14:31.764Z,20.07
2023-01-17T06:16:59.105Z,20.27
2023-01-17T06:19:26.300Z,20.03
2023-01-17T06:21:54.663Z,24.07
2023-01-17T06:24:23.245Z,21.23
2023-01-17T06:26:50.522Z,20.13
2023-01-17T06:29:20.194Z,19.03
2023-01-17T06:31:48.591Z,18.60
2023-01-17T06:34:35.482Z,18.37
2023-01-17T06:37:04.326Z,23.43
2023-01-17T06:39:34.322Z,21.77
2023-01-17T06:42:02.740Z,23.13
2023-01-17T06:44:35.139Z,23.97
2023-01-17T06:47:03.741Z,23.40
2023-01-17T06:49:41.817Z,24.73
2023-01-17T06:52:10.665Z,21.60
2023-01-17T06:54:39.151Z,25.43
2023-01-17T06:57:06.424Z,25.53
2023-01-17T06:59:36.362Z,23.57
2023-01-17T07:02:06.495Z,21.83
2023-01-17T07:04:36.081Z,21.17
2023-01-17T07:07:05.012Z,21.37
2023-01-17T07:09:34.957Z,19.53
2023-01-17T07:12:05.042Z,17.97
2023-01-17T07:14:34.666Z,21.53
2023-01-17T07:17:06.986Z,21.97
2023-01-17T07:19:35.265Z,22.43
2023-01-17T07:22:04.640Z,22.13
2023-01-17T07:24:41.245Z,21.60
2023-01-17T07:27:09.858Z,22.30
2023-01-17T07:29:40.866Z,22.10
2023-01-17T07:32:19.025Z,19.97
2023-01-17T07:34:47.900Z,20.13
2023-01-17T07:37:18.670Z,22.00
2023-01-17T07:39:48.651Z,20.87
2023-01-17T07:42:18.215Z,18.43
2023-01-17T07:44:46.762Z,21.77
2023-01-17T07:47:14.170Z,20.23
2023-01-17T07:49:53.445Z,20.67
2023-01-17T07:52:22.014Z,19.67
2023-01-17T07:54:50.264Z,21.67
2023-01-17T07:57:22.439Z,20.47
2023-01-17T07:59:53.694Z,22.80
2023-01-17T08:02:28.054Z,23.27
2023-01-17T08:04:57.440Z,20.93
2023-01-17T08:07:27.620Z,20.20
2023-01-17T08:09:56.809Z,18.20
2023-01-17T08:12:26.654Z,15.50
2023-01-17T08:14:54.100Z,14.17
2023-01-17T08:17:22.424Z,15.50
2023-01-17T08:19:53.808Z,12.57
2023-01-17T08:22:22.559Z,13.87
2023-01-17T08:24:51.420Z,11.47
2023-01-17T08:27:22.825Z,13.10
2023-01-17T08:29:52.579Z,11.03
2023-01-17T08:32:25.198Z,8.77
2023-01-17T08:34:53.874Z,9.33
2023-01-17T08:37:22.816Z,8.50
2023-01-17T08:40:01.124Z,10.70
2023-01-17T08:42:30.041Z,11.60
2023-01-17T08:44:58.912Z,10.33
2023-01-17T08:47:28.619Z,10.00
2023-01-17T08:50:00.412Z,9.50
2023-01-17T08:52:29.127Z,10.87
2023-01-17T08:55:05.287Z,10.63
2023-01-17T08:57:35.980Z,10.37
2023-01-17T09:00:08.341Z,12.10
2023-01-17T09:02:36.790Z,12.43
2023-01-17T09:05:06.455Z,13.53
2023-01-17T09:07:35.550Z,14.80
2023-01-17T09:10:04.445Z,16.73
2023-01-17T09:12:37.376Z,16.53
2023-01-17T09:17:48.074Z,5.53
2023-01-17T09:20:16.965Z,10.97
2023-01-17T09:22:47.471Z,10.70
2023-01-17T09:25:18.496Z,14.87
2023-01-17T09:27:49.335Z,15.33
2023-01-17T09:30:18.707Z,16.10
2023-01-17T09:33:00.566Z,16.37
2023-01-17T09:35:31.507Z,16.20
2023-01-17T09:37:58.643Z,16.83
2023-01-17T09:40:29.860Z,15.77
2023-01-17T09:43:18.929Z,13.57
2023-01-17T09:45:47.682Z,14.40
2023-01-17T09:48:30.580Z,14.53
2023-01-17T09:51:33.475Z,12.93
2023-01-17T09:54:03.920Z,11.63
2023-01-17T09:56:36.086Z,11.87
2023-01-17T09:59:35.328Z,11.20
2023-01-17T10:02:33.932Z,9.70
2023-01-17T10:08:59.362Z,8.43
2023-01-17T10:12:06.096Z,8.37
2023-01-17T10:14:53.812Z,7.73
2023-01-17T10:17:41.414Z,7.67
2023-01-17T10:20:52.702Z,6.50
2023-01-17T10:23:45.396Z,5.80
2023-01-17T10:26:31.258Z,6.50
2023-01-17T10:29:06.479Z,6.10
2023-01-17T10:31:51.826Z,5.60
2023-01-17T10:35:00.440Z,5.07
2023-01-17T10:38:14.777Z,4.53
2023-01-17T10:40:51.462Z,4.87
2023-01-17T10:43:35.937Z,5.40
2023-01-17T10:46:16.423Z,4.30
2023-01-17T10:48:49.580Z,5.17
2023-01-17T10:52:08.957Z,4.73
2023-01-17T10:55:30.558Z,5.37
2023-01-17T10:57:59.722Z,4.20
2023-01-17T11:00:57.885Z,4.77
2023-01-17T11:03:28.362Z,4.40
2023-01-17T11:06:17.889Z,4.27
2023-01-17T11:09:12.700Z,4.20
2023-01-17T11:11:58.641Z,4.30
2023-01-17T11:14:30.512Z,4.73
2023-01-17T11:17:10.272Z,3.90
2023-01-17T11:19:40.402Z,4.33
2023-01-17T11:22:16.448Z,4.67
2023-01-17T11:24:56.063Z,4.10
2023-01-17T11:27:41.104Z,4.00
2023-01-17T11:30:32.117Z,4.20
2023-01-17T11:33:26.958Z,4.97
2023-01-17T11:36:03.006Z,4.63
2023-01-17T11:38:31.728Z,4.50
2023-01-17T11:41:22.471Z,4.53
2023-01-17T11:44:01.240Z,4.93
2023-01-17T11:46:30.486Z,5.50
2023-01-17T11:49:04.903Z,5.33
2023-01-17T11:51:40.353Z,5.60
2023-01-17T11:54:42.642Z,6.97
2023-01-17T11:57:32.583Z,6.10
2023-01-17T12:00:41.577Z,5.83
2023-01-17T12:03:48.325Z,5.67
2023-01-17T12:06:56.232Z,6.30
2023-01-17T12:09:51.562Z,6.13
2023-01-17T12:12:58.153Z,6.10
2023-01-17T12:15:40.597Z,6.60
2023-01-17T12:18:35.297Z,5.90
2023-01-17T12:21:44.507Z,5.83
2023-01-17T12:24:55.733Z,6.50
2023-01-17T12:28:15.891Z,6.80
2023-01-17T12:31:08.758Z,5.27
2023-01-17T12:37:07.256Z,4.80
2023-01-17T12:39:54.952Z,5.00
2023-01-17T12:42:36.178Z,5.57
2023-01-17T12:45:16.655Z,4.70
2023-01-17T12:48:20.181Z,5.60
2023-01-17T12:51:31.053Z,6.40
2023-01-17T12:54:13.621Z,5.87
2023-01-17T12:57:06.741Z,7.10
2023-01-17T13:00:31.535Z,5.93
2023-01-17T13:03:42.923Z,6.43
2023-01-17T13:06:23.385Z,7.90
2023-01-17T13:08:53.624Z,6.67
2023-01-17T13:11:40.242Z,6.30
2023-01-17T13:14:12.858Z,5.73
2023-01-17T13:17:13.482Z,5.63
2023-01-17T13:19:52.902Z,5.90
2023-01-17T13:22:28.571Z,7.37
2023-01-17T13:28:04.313Z,6.30
2023-01-17T13:30:52.951Z,8.97
2023-01-17T13:33:48.045Z,8.53
2023-01-17T13:36:43.109Z,7.60
2023-01-17T13:39:40.746Z,7.23
2023-01-17T13:42:45.706Z,7.10
2023-01-17T13:45:23.533Z,6.73
2023-01-17T13:47:54.532Z,7.13
2023-01-17T13:50:51.859Z,7.10
2023-01-17T13:53:40.451Z,7.50
2023-01-17T13:56:32.129Z,6.50
2023-01-17T13:59:06.486Z,6.50
2023-01-17T14:01:53.644Z,6.73
2023-01-17T14:04:29.443Z,7.93
2023-01-17T14:07:06.517Z,6.20
2023-01-17T14:09:47.853Z,7.30
2023-01-17T14:12:47.213Z,8.67
2023-01-17T14:15:31.295Z,10.10
2023-01-17T14:18:05.893Z,12.97
2023-01-17T14:20:48.431Z,12.33
2023-01-17T14:24:13.557Z,12.90
2023-01-17T14:26:58.769Z,13.40
2023-01-17T14:30:09.161Z,14.30
2023-01-17T14:32:41.473Z,13.13
2023-01-17T14:35:26.373Z,13.17
2023-01-17T14:37:58.418Z,12.93
2023-01-17T14:40:34.099Z,12.97
2023-01-17T14:43:14.715Z,13.00
2023-01-17T14:45:44.233Z,12.57
2023-01-17T14:48:20.935Z,12.90
2023-01-17T14:51:03.477Z,13.00
2023-01-17T14:53:34.321Z,12.57
2023-01-17T14:56:25.826Z,13.00
2023-01-17T14:59:17.758Z,13.90
2023-01-17T15:02:08.531Z,12.90
2023-01-17T15:04:41.805Z,14.20
2023-01-17T15:07:17.151Z,13.87
2023-01-17T15:09:45.647Z,12.47
2023-01-17T15:12:15.909Z,12.60
2023-01-17T15:14:47.638Z,13.03
2023-01-17T15:17:25.995Z,12.87
2023-01-17T15:20:08.371Z,12.60
2023-01-17T15:22:38.652Z,12.97
2023-01-17T15:25:12.173Z,11.90
2023-01-17T15:27:40.776Z,11.47
2023-01-17T15:30:14.660Z,11.67
2023-01-17T15:32:49.082Z,10.20
2023-01-17T15:35:22.631Z,10.53
2023-01-17T15:37:59.233Z,10.90
2023-01-17T15:40:28.740Z,11.37
2023-01-17T15:43:01.858Z,9.83
2023-01-17T15:45:34.511Z,10.93
2023-01-17T15:48:37.080Z,12.03
2023-01-17T15:51:10.632Z,11.53
2023-01-17T15:53:45.619Z,10.73
2023-01-17T15:56:50.337Z,10.30
2023-01-17T16:00:02.624Z,9.23
2023-01-17T16:03:12.097Z,9.00
2023-01-17T16:05:45.957Z,7.50
2023-01-17T16:08:32.530Z,9.03
2023-01-17T16:11:10.024Z,8.23
2023-01-17T16:13:42.521Z,8.57
2023-01-17T16:16:39.828Z,8.53
2023-01-17T16:19:09.813Z,8.63
2023-01-17T16:21:37.950Z,9.03
2023-01-17T16:24:09.944Z,8.87
2023-01-17T16:26:36.962Z,8.10
2023-01-17T16:29:05.160Z,8.43
2023-01-17T16:31:34.493Z,9.10
2023-01-17T16:34:02.504Z,9.67
2023-01-17T16:36:35.394Z,9.90
2023-01-17T16:39:07.127Z,8.53
2023-01-17T16:41:37.578Z,8.07
2023-01-17T16:44:06.721Z,8.27
2023-01-17T16:46:38.870Z,8.40
2023-01-17T16:49:09.145Z,9.73
2023-01-17T16:51:38.642Z,11.03
2023-01-17T16:54:09.408Z,10.60
2023-01-17T16:56:38.808Z,7.90
2023-01-17T16:59:08.761Z,6.90
2023-01-17T17:01:36.038Z,6.20
2023-01-17T17:04:05.633Z,6.10
2023-01-17T17:06:35.340Z,6.57
2023-01-17T17:09:04.777Z,7.00
2023-01-17T17:11:32.905Z,7.07
2023-01-17T17:14:03.610Z,7.73
2023-01-17T17:16:33.066Z,8.07
2023-01-17T17:19:05.322Z,9.70
2023-01-17T17:21:35.596Z,11.27
2023-01-17T17:24:04.847Z,10.67
2023-01-17T17:26:40.079Z,10.80
2023-01-17T17:29:29.878Z,8.77
2023-01-17T17:31:57.262Z,10.63
2023-01-17T17:34:27.800Z,12.80
2023-01-17T17:36:58.234Z,10.47
2023-01-17T17:39:28.888Z,11.40
2023-01-17T17:41:56.257Z,11.80
2023-01-17T17:44:25.172Z,15.17
2023-01-17T17:46:54.729Z,8.90
2023-01-17T17:49:26.267Z,12.57
2023-01-17T17:51:54.625Z,13.07
2023-01-17T17:54:22.374Z,14.10
2023-01-17T17:56:49.979Z,13.03
2023-01-17T17:59:19.921Z,12.97
2023-01-17T18:01:47.871Z,13.53
2023-01-17T18:04:15.141Z,12.37
2023-01-17T18:06:42.437Z,10.87
2023-01-17T18:09:11.095Z,11.43
2023-01-17T18:11:40.907Z,11.00
2023-01-17T18:14:11.559Z,11.30
2023-01-17T18:16:42.318Z,10.17
2023-01-17T18:19:22.141Z,11.60
2023-01-17T18:21:51.464Z,11.40
2023-01-17T18:24:24.056Z,11.07
2023-01-17T18:26:57.314Z,12.03
2023-01-17T18:29:26.512Z,12.73
2023-01-17T18:31:54.781Z,12.57
2023-01-17T18:34:29.491Z,11.90
2023-01-17T18:36:57.107Z,11.93
2023-01-17T18:39:30.320Z,11.70
2023-01-17T18:41:58.477Z,11.63
2023-01-17T18:44:27.775Z,11.13
2023-01-17T18:46:55.175Z,11.30
2023-01-17T18:49:22.927Z,12.03
2023-01-17T18:51:51.742Z,12.10
2023-01-17T18:54:21.056Z,11.77
2023-01-17T18:56:48.749Z,11.20
2023-01-17T18:59:18.576Z,11.37
2023-01-17T19:01:46.012Z,11.90
2023-01-17T19:04:15.232Z,11.57
2023-01-17T19:06:45.537Z,11.43
2023-01-17T19:09:14.242Z,11.70
2023-01-17T19:11:43.491Z,9.67
2023-01-17T19:14:11.172Z,11.70
2023-01-17T19:16:41.707Z,10.13
2023-01-17T19:19:12.946Z,10.10
2023-01-17T19:21:40.401Z,10.73
2023-01-17T19:24:08.412Z,10.43
2023-01-17T19:26:36.096Z,10.20
2023-01-17T19:29:05.143Z,10.70
2023-01-17T19:31:36.100Z,11.63
2023-01-17T19:34:03.632Z,10.83
2023-01-17T19:36:36.468Z,10.73
2023-01-17T19:39:06.825Z,12.27
2023-01-17T19:41:37.258Z,13.40
2023-01-17T19:44:09.731Z,14.37
2023-01-17T19:46:37.746Z,12.80
2023-01-17T19:49:08.199Z,11.87
2023-01-17T19:51:36.576Z,10.90
2023-01-17T19:54:05.501Z,11.17
2023-01-17T19:56:32.669Z,10.33
2023-01-17T19:59:01.973Z,9.87
2023-01-17T20:01:32.633Z,9.67
2023-01-17T20:04:01.541Z,8.83
2023-01-17T20:06:31.384Z,8.47
2023-01-17T20:08:58.731Z,8.77
2023-01-17T20:11:27.623Z,8.77
2023-01-17T20:13:57.458Z,7.43
2023-01-17T20:16:26.360Z,8.33
2023-01-17T20:18:53.923Z,8.47
2023-01-17T20:21:23.605Z,8.60
2023-01-17T20:23:52.676Z,7.70
2023-01-17T20:26:29.724Z,8.37
2023-01-17T20:28:57.529Z,8.67
2023-01-17T20:31:26.021Z,8.53
2023-01-17T20:33:55.896Z,8.67
2023-01-17T20:36:26.186Z,8.33
2023-01-17T20:38:54.754Z,8.07
2023-01-17T20:41:30.292Z,7.97
2023-01-17T20:43:59.331Z,10.90
2023-01-17T20:46:29.775Z,10.10
2023-01-17T20:48:58.716Z,15.10
2023-01-17T20:51:28.402Z,14.73
2023-01-17T20:54:01.321Z,11.53
2023-01-17T20:56:34.908Z,11.57
2023-01-17T20:59:06.268Z,14.17
2023-01-17T21:01:34.563Z,17.13
2023-01-17T21:04:02.235Z,15.40
2023-01-17T21:06:29.697Z,15.27
2023-01-17T21:08:56.981Z,13.93
2023-01-17T21:11:27.907Z,15.57
2023-01-17T21:13:55.177Z,12.50
2023-01-17T21:16:23.256Z,10.97
2023-01-17T21:18:52.140Z,10.43
2023-01-17T21:21:25.672Z,11.07
2023-01-17T21:23:58.133Z,10.87
2023-01-17T21:26:27.632Z,11.13
2023-01-17T21:28:55.356Z,10.77
2023-01-17T21:31:26.680Z,12.37
2023-01-17T21:33:58.340Z,13.70
2023-01-17T21:36:32.710Z,18.00
2023-01-17T21:39:04.995Z,13.87
2023-01-17T21:41:35.608Z,12.37
2023-01-17T21:44:08.851Z,9.50
2023-01-17T21:46:40.753Z,9.00
2023-01-17T21:49:11.925Z,8.10
2023-01-17T21:51:53.412Z,15.23
2023-01-17T21:54:44.923Z,13.53
2023-01-17T21:57:32.053Z,12.97
2023-01-17T21:59:59.627Z,11.80
2023-01-17T22:02:26.815Z,13.30
2023-01-17T22:04:55.316Z,13.13
2023-01-17T22:07:23.327Z,14.20
2023-01-17T22:09:50.467Z,13.30
2023-01-17T22:12:17.892Z,11.70
2023-01-17T22:14:45.186Z,12.80
2023-01-17T22:17:12.418Z,12.40
2023-01-17T22:19:39.368Z,14.73
2023-01-17T22:22:06.456Z,15.43
2023-01-17T22:24:33.752Z,17.43
2023-01-17T22:27:01.027Z,16.03
2023-01-17T22:29:28.556Z,16.30
2023-01-17T22:31:56.016Z,12.80
2023-01-17T22:34:23.226Z,13.97
2023-01-17T22:36:50.655Z,14.40
2023-01-17T22:39:17.939Z,14.70
2023-01-17T22:41:45.202Z,13.70
2023-01-17T22:44:12.737Z,14.17
2023-01-17T22:46:41.566Z,13.13
2023-01-17T22:49:13.520Z,13.97
2023-01-17T22:51:40.727Z,13.83
2023-01-17T22:54:08.092Z,15.27
2023-01-17T22:56:35.905Z,14.63
2023-01-17T22:59:03.455Z,12.67
2023-01-17T23:01:33.234Z,12.03
2023-01-17T23:04:03.239Z,10.43
2023-01-17T23:06:31.726Z,10.53
2023-01-17T23:09:02.690Z,10.43
2023-01-17T23:11:39.877Z,10.00
2023-01-17T23:14:27.702Z,10.50
2023-01-17T23:17:15.682Z,10.07
2023-01-17T23:19:52.124Z,10.73
2023-01-17T23:22:24.607Z,10.33
2023-01-17T23:24:59.003Z,10.77
2023-01-17T23:27:57.138Z,10.00
2023-01-17T23:30:29.844Z,6.33
2023-01-17T23:33:02.523Z,7.10
2023-01-17T23:35:32.629Z,7.00
2023-01-17T23:38:19.202Z,12.50
2023-01-17T23:41:07.069Z,11.00
2023-01-17T23:43:35.401Z,13.07
2023-01-17T23:46:04.356Z,13.37
2023-01-17T23:48:31.886Z,13.23
2023-01-17T23:51:01.170Z,13.43
2023-01-17T23:53:28.433Z,17.17
2023-01-17T23:55:57.238Z,23.97
2023-01-17T23:58:26.812Z,26.07
